CheckWX is a tool to help pilots better visualize weather data.  It is not intended as a substitute for an official pre-flight weather briefing.

15:10:36 UTC

KCNB METAR
Myers Field Airport
Canby, Minnesota, USA
Current

16 mins ago

KCNB 231455Z AUTO 32011KT 250V330 10SM BKN023 OVC028 12/08 A3006 RMK AO2 T01160075
Observed
May-23 @ 14:55 UTC
Wind
  • 320° at 11 KTS
Visibility
10 SM
Flight Rules
MVFR
Cloud Levels
  • Broken at 2,300' AGL
  • Overcast at 2,800' AGL
Temperature
12°C / 54°F
Dewpoint
C / 46°F
Humidity
77%
Altimeter
30.06" Hg
Pressure
1017.92 hPa
Previous

36 mins ago

KCNB 231435Z AUTO 32011KT 10SM OVC022 11/07 A3006 RMK AO2 T01100072
Observed
May-23 @ 14:35 UTC
Wind
  • 320° at 11 KTS
Visibility
10 SM
Flight Rules
MVFR
Cloud Levels
  • Overcast at 2,200' AGL
Temperature
11°C / 52°F
Dewpoint
C / 45°F
Humidity
77%
Altimeter
30.06" Hg
Pressure
1017.92 hPa
Previous

55 mins ago

KCNB 231416Z AUTO 31010KT 10SM OVC022 11/07 A3005 RMK AO2 T01060070
Observed
May-23 @ 14:16 UTC
Wind
  • 310° at 10 KTS
Visibility
10 SM
Flight Rules
MVFR
Cloud Levels
  • Overcast at 2,200' AGL
Temperature
11°C / 52°F
Dewpoint
C / 45°F
Humidity
77%
Altimeter
30.05" Hg
Pressure
1017.62 hPa